Time;durP1;ratioP1;P1;durP2;ratioP2;P2;SDS_P1;SDS_P2;PMS_P1;PMS_P2;Temp;Humidity;BMP_temperature;BMP_pressure;BME280_temperature;BME280_humidity;BME280_pressure;Samples;Min_cycle;Max_cycle;Signal;HPM_P1;HPM_P2
2022/06/16 00:03:47;;;;;;;6.2;11.5;;;;;;;13.2;100;98850;;;;
2022/06/16 00:14:47;;;;;;;6.2;11.5;;;;;;;12.9;100;98830;;;;
2022/06/16 00:24:47;;;;;;;6.2;11.5;;;;;;;12.8;100;98830;;;;
2022/06/16 00:34:48;;;;;;;6.7;10.9;;;;;;;12.4;100;98820;;;;
2022/06/16 00:45:47;;;;;;;6.7;10.9;;;;;;;12.2;100;98830;;;;
2022/06/16 00:56:48;;;;;;;6.4;10.5;;;;;;;11.8;100;98810;;;;
2022/06/16 01:06:47;;;;;;;6.4;10.5;;;;;;;12;100;98810;;;;
2022/06/16 01:17:47;;;;;;;6.4;10.5;;;;;;;12;100;98790;;;;
2022/06/16 01:28:47;;;;;;;7.7;10.7;;;;;;;11.9;100;98790;;;;
2022/06/16 01:38:47;;;;;;;7.7;10.7;;;;;;;11.8;100;98780;;;;
2022/06/16 01:49:47;;;;;;;7.7;10.7;;;;;;;11.6;100;98780;;;;
2022/06/16 01:59:48;;;;;;;8.4;13.2;;;;;;;11.7;100;98770;;;;
2022/06/16 02:10:47;;;;;;;8.4;13.2;;;;;;;11.6;100;98770;;;;
2022/06/16 02:21:47;;;;;;;8.4;13.2;;;;;;;11.6;100;98770;;;;
2022/06/16 02:31:47;;;;;;;7.4;10.8;;;;;;;11.5;100;98780;;;;
2022/06/16 02:42:47;;;;;;;7.4;10.8;;;;;;;11.3;100;98790;;;;
2022/06/16 02:52:47;;;;;;;7.4;10.8;;;;;;;11.3;100;98780;;;;
2022/06/16 03:03:47;;;;;;;8.2;13.4;;;;;;;11.1;100;98780;;;;
2022/06/16 03:14:47;;;;;;;8.2;13.4;;;;;;;11.4;100;98780;;;;
2022/06/16 03:25:47;;;;;;;8.2;13.4;;;;;;;11.8;100;98780;;;;
2022/06/16 03:35:47;;;;;;;9;17.1;;;;;;;11.8;100;98780;;;;
2022/06/16 03:45:47;;;;;;;9;17.1;;;;;;;12;100;98780;;;;
2022/06/16 03:56:47;;;;;;;8.8;12.4;;;;;;;12.4;100;98780;;;;
2022/06/16 04:07:47;;;;;;;8.8;12.4;;;;;;;12.9;100;98780;;;;
2022/06/16 04:17:47;;;;;;;8.8;12.4;;;;;;;13.4;100;98780;;;;
2022/06/16 04:27:47;;;;;;;7.2;11.5;;;;;;;13.5;100;98780;;;;
2022/06/16 04:38:48;;;;;;;7.2;11.5;;;;;;;14.1;100;98780;;;;
2022/06/16 04:49:49;;;;;;;7.2;11.5;;;;;;;14.7;100;98770;;;;
2022/06/16 05:00:49;;;;;;;6.4;8.9;;;;;;;15.3;100;98770;;;;
2022/06/16 05:11:47;;;;;;;6.4;8.9;;;;;;;15.8;100;98770;;;;
2022/06/16 05:21:47;;;;;;;6.4;8.9;;;;;;;16.3;100;98770;;;;
2022/06/16 05:32:47;;;;;;;6.5;9.7;;;;;;;16.8;100;98770;;;;
2022/06/16 05:43:47;;;;;;;6.5;9.7;;;;;;;17.3;100;98760;;;;
2022/06/16 05:54:47;;;;;;;6.5;9.7;;;;;;;17.6;100;98760;;;;
2022/06/16 06:05:47;;;;;;;5.6;9.2;;;;;;;17.9;100;98750;;;;
2022/06/16 06:16:52;;;;;;;5.6;9.2;;;;;;;18.5;100;98750;;;;
2022/06/16 06:26:47;;;;;;;4.8;7.6;;;;;;;19;100;98750;;;;
2022/06/16 06:36:47;;;;;;;4.8;7.6;;;;;;;19.4;100;98750;;;;
2022/06/16 06:46:48;;;;;;;4.8;7.6;;;;;;;19.7;100;98740;;;;
2022/06/16 06:56:47;;;;;;;4.3;7.1;;;;;;;20.4;100;98740;;;;
2022/06/16 07:07:48;;;;;;;4.3;7.1;;;;;;;21.3;100;98730;;;;
2022/06/16 07:17:47;;;;;;;4.3;7.1;;;;;;;21.6;100;98720;;;;
2022/06/16 07:27:47;;;;;;;3.3;7.6;;;;;;;22.2;100;98710;;;;
2022/06/16 07:37:47;;;;;;;3.3;7.6;;;;;;;22.8;100;98710;;;;
2022/06/16 07:48:47;;;;;;;3.3;7.6;;;;;;;23.3;100;98710;;;;
2022/06/16 07:59:49;;;;;;;2.1;4.5;;;;;;;23.9;100;98710;;;;
2022/06/16 08:10:47;;;;;;;2.1;4.5;;;;;;;23.8;97.8;98700;;;;
2022/06/16 08:20:47;;;;;;;2.1;4.5;;;;;;;24.3;100;98700;;;;
2022/06/16 08:30:48;;;;;;;2.4;5;;;;;;;24.5;94.8;98700;;;;
2022/06/16 08:40:47;;;;;;;2.4;5;;;;;;;24.8;91.9;98690;;;;
2022/06/16 08:51:47;;;;;;;2.4;5;;;;;;;25;93.6;98690;;;;
2022/06/16 09:01:48;;;;;;;2.7;5.3;;;;;;;25.2;96.6;98690;;;;
2022/06/16 09:12:47;;;;;;;2.7;5.3;;;;;;;25.6;89;98690;;;;
2022/06/16 09:23:48;;;;;;;2.7;5.3;;;;;;;25.6;88.1;98670;;;;
2022/06/16 09:34:48;;;;;;;2;5.2;;;;;;;25.6;89.2;98670;;;;
2022/06/16 09:45:48;;;;;;;2;5.2;;;;;;;25.6;86.5;98670;;;;
2022/06/16 09:55:48;;;;;;;2;5.2;;;;;;;25.9;86.7;98660;;;;
2022/06/16 10:05:48;;;;;;;2.1;4.5;;;;;;;26.1;83.2;98660;;;;
2022/06/16 10:15:48;;;;;;;2.1;4.5;;;;;;;26.3;76.7;98660;;;;
2022/06/16 10:25:48;;;;;;;2.1;4.5;;;;;;;26.6;82.8;98660;;;;
2022/06/16 10:36:48;;;;;;;2.2;4.5;;;;;;;26.9;74.5;98650;;;;
2022/06/16 10:47:48;;;;;;;2.2;4.5;;;;;;;27.1;75.7;98650;;;;
2022/06/16 10:57:48;;;;;;;1.8;4.4;;;;;;;27.3;74;98640;;;;
2022/06/16 11:07:48;;;;;;;1.8;4.4;;;;;;;27.8;70.9;98640;;;;
2022/06/16 11:17:48;;;;;;;1.8;4.4;;;;;;;28.3;61.9;98630;;;;
2022/06/16 11:27:48;;;;;;;2;4.9;;;;;;;28.2;67.9;98630;;;;
2022/06/16 11:38:48;;;;;;;2;4.9;;;;;;;27.1;70.4;98620;;;;
2022/06/16 11:49:48;;;;;;;2;4.9;;;;;;;27.5;66.7;98610;;;;
2022/06/16 11:59:48;;;;;;;1.7;3.6;;;;;;;27.9;70;98600;;;;
2022/06/16 12:09:48;;;;;;;1.7;3.6;;;;;;;27.9;66.9;98590;;;;
2022/06/16 12:20:48;;;;;;;1.7;3.6;;;;;;;27.3;68.6;98560;;;;
2022/06/16 12:30:48;;;;;;;1.9;4.9;;;;;;;27.8;67.7;98550;;;;
2022/06/16 12:40:48;;;;;;;1.9;4.9;;;;;;;28.1;66.6;98550;;;;
2022/06/16 12:50:48;;;;;;;1.9;4.9;;;;;;;28.8;65.1;98530;;;;
2022/06/16 13:01:48;;;;;;;2.1;4;;;;;;;29.4;67;98510;;;;
2022/06/16 13:12:48;;;;;;;2.1;4;;;;;;;29.2;70.1;98500;;;;
2022/06/16 13:22:48;;;;;;;2.1;4;;;;;;;29.9;63.9;98480;;;;
2022/06/16 13:33:48;;;;;;;1.8;4.4;;;;;;;29.9;64.4;98460;;;;
2022/06/16 13:44:48;;;;;;;1.8;4.4;;;;;;;30.4;60.6;98440;;;;
2022/06/16 13:54:48;;;;;;;1.8;4.4;;;;;;;31.2;58.9;98410;;;;
2022/06/16 14:04:48;;;;;;;2.2;4.8;;;;;;;30.4;59.9;98400;;;;
2022/06/16 14:14:48;;;;;;;2.2;4.8;;;;;;;30;59.8;98380;;;;
2022/06/16 14:25:48;;;;;;;2.2;4.8;;;;;;;28.5;58.7;98370;;;;
2022/06/16 14:35:48;;;;;;;1.8;3.9;;;;;;;27.4;63.9;98380;;;;
2022/06/16 14:45:48;;;;;;;1.8;3.9;;;;;;;23.4;100;98520;;;;
2022/06/16 14:55:48;;;;;;;1.8;3.9;;;;;;;18.4;100;98590;;;;
2022/06/16 15:06:48;;;;;;;3;8.4;;;;;;;17;100;98540;;;;
2022/06/16 15:26:48;;;;;;;3.7;6.9;;;;;;;17.1;100;98590;;;;
2022/06/16 15:36:48;;;;;;;3.7;6.9;;;;;;;17.1;100;98660;;;;
2022/06/16 15:46:48;;;;;;;3.7;6.9;;;;;;;17;100;98660;;;;
2022/06/16 15:57:48;;;;;;;5.4;10.1;;;;;;;16.9;100;98700;;;;
2022/06/16 16:07:48;;;;;;;5.4;10.1;;;;;;;16.6;100;98700;;;;
2022/06/16 16:17:48;;;;;;;5.4;10.1;;;;;;;16.3;100;98710;;;;
2022/06/16 16:27:48;;;;;;;4.9;7.4;;;;;;;16.5;100;98680;;;;
2022/06/16 16:38:48;;;;;;;4.9;7.4;;;;;;;16.6;100;98680;;;;
2022/06/16 16:48:48;;;;;;;4.9;7.4;;;;;;;16.9;100;98680;;;;
2022/06/16 16:58:48;;;;;;;8.9;11.3;;;;;;;16.9;100;98680;;;;
2022/06/16 17:09:48;;;;;;;8.9;11.3;;;;;;;17.2;100;98670;;;;
2022/06/16 17:20:48;;;;;;;8.9;11.3;;;;;;;17.2;100;98660;;;;
2022/06/16 17:30:48;;;;;;;4.3;7.2;;;;;;;17;100;98670;;;;
2022/06/16 17:41:48;;;;;;;4.3;7.2;;;;;;;16.6;100;98640;;;;
2022/06/16 18:02:48;;;;;;;4;7;;;;;;;16.7;100;98580;;;;
2022/06/16 18:12:48;;;;;;;4;7;;;;;;;16.7;100;98580;;;;
2022/06/16 18:22:48;;;;;;;4;7;;;;;;;16.3;100;98560;;;;
2022/06/16 18:32:48;;;;;;;5;8.4;;;;;;;16.5;100;98570;;;;
2022/06/16 18:43:49;;;;;;;5;8.4;;;;;;;16.5;100;98610;;;;
2022/06/16 18:54:48;;;;;;;5;8.4;;;;;;;16.5;100;98640;;;;
2022/06/16 19:04:48;;;;;;;4;6.7;;;;;;;16.4;100;98670;;;;
2022/06/16 19:14:48;;;;;;;4;6.7;;;;;;;16.3;100;98680;;;;
2022/06/16 19:24:48;;;;;;;4;6.7;;;;;;;16.2;100;98710;;;;
2022/06/16 19:35:48;;;;;;;4.4;9.7;;;;;;;16.1;100;98720;;;;
2022/06/16 19:57:50;;;;;;;4.8;7.9;;;;;;;16.1;100;98730;;;;
2022/06/16 20:07:48;;;;;;;4.8;7.9;;;;;;;16.1;100;98730;;;;
2022/06/16 20:17:48;;;;;;;4.8;7.9;;;;;;;16;100;98710;;;;
2022/06/16 20:28:48;;;;;;;4.9;7.1;;;;;;;15.9;100;98730;;;;
2022/06/16 20:38:48;;;;;;;4.9;7.1;;;;;;;15.8;100;98740;;;;
2022/06/16 20:49:50;;;;;;;4.9;7.1;;;;;;;15.8;100;98750;;;;
2022/06/16 21:10:48;;;;;;;5.1;9.9;;;;;;;15.5;100;98750;;;;
2022/06/16 21:20:48;;;;;;;5.1;9.9;;;;;;;15.4;100;98750;;;;
2022/06/16 21:30:48;;;;;;;7.1;9.6;;;;;;;15.1;100;98730;;;;
2022/06/16 21:41:48;;;;;;;7.1;9.6;;;;;;;15.1;100;98690;;;;
2022/06/16 21:51:48;;;;;;;7.1;9.6;;;;;;;15.1;100;98700;;;;
2022/06/16 22:01:48;;;;;;;5.4;9.6;;;;;;;15;100;98690;;;;
2022/06/16 22:12:48;;;;;;;5.4;9.6;;;;;;;15;100;98690;;;;
2022/06/16 22:23:48;;;;;;;5.4;9.6;;;;;;;14.9;100;98700;;;;
2022/06/16 22:33:48;;;;;;;5.3;9.6;;;;;;;14.9;100;98710;;;;
2022/06/16 22:44:48;;;;;;;5.3;9.6;;;;;;;14.8;100;98730;;;;
2022/06/16 23:05:48;;;;;;;5.8;8.5;;;;;;;14.8;100;98740;;;;
2022/06/16 23:16:48;;;;;;;5.8;8.5;;;;;;;14.7;100;98740;;;;
2022/06/16 23:26:48;;;;;;;6;8.6;;;;;;;14.6;100;98740;;;;
2022/06/16 23:37:48;;;;;;;6;8.6;;;;;;;14.4;100;98740;;;;
2022/06/16 23:48:20;;;;;;;6;8.6;;;;;;;14.2;100;98730;;;;
2022/06/16 23:58:48;;;;;;;6.8;10.5;;;;;;;14.1;100;98740;;;;
